createdAt,value
2018-11-21T00:00:39.803Z,22.50
2018-11-21T00:03:07.975Z,25.90
2018-11-21T00:05:36.155Z,22.17
2018-11-21T00:08:04.345Z,24.83
2018-11-21T00:10:32.509Z,23.40
2018-11-21T00:13:00.706Z,26.77
2018-11-21T00:15:29.209Z,26.60
2018-11-21T00:17:57.407Z,26.87
2018-11-21T00:20:25.568Z,28.10
2018-11-21T00:22:53.794Z,27.40
2018-11-21T00:25:21.992Z,24.27
2018-11-21T00:27:50.181Z,24.03
2018-11-21T00:30:18.411Z,23.93
2018-11-21T00:32:46.577Z,24.03
2018-11-21T00:35:14.798Z,27.13
2018-11-21T00:37:42.936Z,23.73
2018-11-21T00:40:12.784Z,24.67
2018-11-21T00:42:46.734Z,21.67
2018-11-21T00:45:09.978Z,23.50
2018-11-21T00:47:38.200Z,21.97
2018-11-21T00:50:07.451Z,22.10
2018-11-21T00:52:35.970Z,22.97
2018-11-21T00:55:04.194Z,22.77
2018-11-21T00:57:32.686Z,22.77
2018-11-21T01:00:00.864Z,24.50
2018-11-21T01:02:29.044Z,21.80
2018-11-21T01:04:57.216Z,23.63
2018-11-21T01:07:25.535Z,25.37
2018-11-21T01:09:53.711Z,23.00
2018-11-21T01:12:21.879Z,29.07
2018-11-21T01:14:50.073Z,25.90
2018-11-21T01:17:18.266Z,25.80
2018-11-21T01:19:46.453Z,24.30
2018-11-21T01:22:14.673Z,23.47
2018-11-21T01:24:42.880Z,26.00
2018-11-21T01:27:11.104Z,22.50
2018-11-21T01:29:40.147Z,26.83
2018-11-21T01:32:08.307Z,24.00
2018-11-21T01:34:36.504Z,24.93
2018-11-21T01:37:04.763Z,22.70
2018-11-21T01:39:32.998Z,23.30
2018-11-21T01:42:01.150Z,22.00
2018-11-21T01:44:29.372Z,24.50
2018-11-21T01:46:57.544Z,24.07
2018-11-21T01:49:25.773Z,24.20
2018-11-21T01:51:53.980Z,25.10
2018-11-21T01:54:22.962Z,25.30
2018-11-21T01:56:51.146Z,25.07
2018-11-21T01:59:19.350Z,26.23
2018-11-21T02:01:47.538Z,28.13
2018-11-21T02:04:15.731Z,27.07
2018-11-21T02:06:43.938Z,24.60
2018-11-21T02:09:13.006Z,22.90
2018-11-21T02:11:41.242Z,24.60
2018-11-21T02:14:09.373Z,25.07
2018-11-21T02:16:37.541Z,22.60
2018-11-21T02:19:05.847Z,19.90
2018-11-21T02:21:34.039Z,24.63
2018-11-21T02:24:02.266Z,19.37
2018-11-21T02:26:30.434Z,23.43
2018-11-21T02:28:58.645Z,25.50
2018-11-21T02:31:26.850Z,21.80
2018-11-21T02:33:55.101Z,26.57
2018-11-21T02:36:23.279Z,20.93
2018-11-21T02:38:51.453Z,25.70
2018-11-21T02:41:19.641Z,26.97
2018-11-21T02:43:47.819Z,25.63
2018-11-21T02:46:16.064Z,25.83
2018-11-21T02:48:44.229Z,25.37
2018-11-21T02:51:12.446Z,23.70
2018-11-21T02:53:40.650Z,24.23
2018-11-21T02:56:08.913Z,25.37
2018-11-21T02:58:37.098Z,25.10
2018-11-21T03:01:05.598Z,30.97
2018-11-21T03:03:33.795Z,26.73
2018-11-21T03:06:02.051Z,26.03
2018-11-21T03:08:30.268Z,27.07
2018-11-21T03:10:58.537Z,27.67
2018-11-21T03:13:28.479Z,28.60
2018-11-21T03:15:54.919Z,25.37
2018-11-21T03:18:23.107Z,27.40
2018-11-21T03:20:51.314Z,27.80
2018-11-21T03:23:19.515Z,30.53
2018-11-21T03:25:47.725Z,28.53
2018-11-21T03:28:15.916Z,35.10
2018-11-21T03:30:44.138Z,27.30
2018-11-21T03:33:12.318Z,25.27
2018-11-21T03:35:40.530Z,27.90
2018-11-21T03:38:08.732Z,25.00
2018-11-21T03:40:36.924Z,29.90
2018-11-21T03:43:05.138Z,27.63
2018-11-21T03:45:33.324Z,25.90
2018-11-21T03:48:01.517Z,32.97
2018-11-21T03:50:29.697Z,28.47
2018-11-21T03:52:57.889Z,29.60
2018-11-21T03:55:26.080Z,27.73
2018-11-21T03:57:54.296Z,27.47
2018-11-21T04:00:22.493Z,30.93
2018-11-21T04:02:50.680Z,32.80
2018-11-21T04:05:18.872Z,29.40
2018-11-21T04:07:47.070Z,27.37
2018-11-21T04:10:15.254Z,28.73
2018-11-21T04:12:43.736Z,34.63
2018-11-21T04:15:13.329Z,25.33
2018-11-21T04:17:41.478Z,31.17
2018-11-21T04:20:09.934Z,32.33
2018-11-21T04:22:38.272Z,30.63
2018-11-21T04:25:07.611Z,26.57
2018-11-21T04:27:35.796Z,24.87
2018-11-21T04:30:04.588Z,30.20
2018-11-21T04:32:32.769Z,27.70
2018-11-21T04:35:00.940Z,29.57
2018-11-21T04:37:29.120Z,28.93
2018-11-21T04:39:57.290Z,28.43
2018-11-21T04:42:25.522Z,29.73
2018-11-21T04:44:53.683Z,33.00
2018-11-21T04:47:21.859Z,29.70
2018-11-21T04:49:50.080Z,27.97
2018-11-21T04:52:18.280Z,28.33
2018-11-21T04:54:46.465Z,29.53
2018-11-21T04:57:14.640Z,27.67
2018-11-21T04:59:42.811Z,26.70
2018-11-21T05:02:10.984Z,30.43
2018-11-21T05:04:39.155Z,27.90
2018-11-21T05:07:07.350Z,30.77
2018-11-21T05:09:35.513Z,35.93
2018-11-21T05:12:03.700Z,28.10
2018-11-21T05:14:31.896Z,30.03
2018-11-21T05:17:00.055Z,30.07
2018-11-21T05:19:28.209Z,26.30
2018-11-21T05:21:56.400Z,28.60
2018-11-21T05:24:24.573Z,33.77
2018-11-21T05:26:52.737Z,34.10
2018-11-21T05:29:20.939Z,29.73
2018-11-21T05:31:49.121Z,25.30
2018-11-21T05:34:17.297Z,29.80
2018-11-21T05:36:45.432Z,29.40
2018-11-21T05:39:13.654Z,36.77
2018-11-21T05:41:41.783Z,28.30
2018-11-21T05:44:09.959Z,27.47
2018-11-21T05:46:38.150Z,28.17
2018-11-21T05:49:06.563Z,32.37
2018-11-21T05:51:34.737Z,30.27
2018-11-21T05:54:02.907Z,33.90
2018-11-21T05:56:31.390Z,34.43
2018-11-21T05:58:59.583Z,32.30
2018-11-21T06:01:27.807Z,29.90
2018-11-21T06:03:55.971Z,30.13
2018-11-21T06:06:24.135Z,48.37
2018-11-21T06:08:52.305Z,40.77
2018-11-21T06:11:20.515Z,37.50
2018-11-21T06:13:48.727Z,43.43
2018-11-21T06:16:16.913Z,60.27
2018-11-21T06:18:45.082Z,58.70
2018-11-21T06:21:13.269Z,59.40
2018-11-21T06:23:41.443Z,43.10
2018-11-21T06:26:09.623Z,43.57
2018-11-21T06:28:37.785Z,42.63
2018-11-21T06:31:05.955Z,42.20
2018-11-21T06:33:34.248Z,46.27
2018-11-21T06:36:02.421Z,38.97
2018-11-21T06:38:30.606Z,41.60
2018-11-21T06:40:58.809Z,42.80
2018-11-21T06:43:27.014Z,38.10
2018-11-21T06:45:56.142Z,43.40
2018-11-21T06:48:24.300Z,41.53
2018-11-21T06:50:52.463Z,37.90
2018-11-21T06:53:21.495Z,41.10
2018-11-21T06:55:49.692Z,37.70
2018-11-21T06:58:17.863Z,37.90
2018-11-21T07:00:46.163Z,34.40
2018-11-21T07:03:15.671Z,37.47
2018-11-21T07:05:43.874Z,34.40
2018-11-21T07:08:12.025Z,41.23
2018-11-21T07:10:40.219Z,41.07
2018-11-21T07:13:11.227Z,42.40
2018-11-21T07:15:36.559Z,41.00
2018-11-21T07:18:04.813Z,35.93
2018-11-21T07:20:32.994Z,34.20
2018-11-21T07:23:01.168Z,35.93
2018-11-21T07:25:29.370Z,36.93
2018-11-21T07:27:57.536Z,38.43
2018-11-21T07:30:25.693Z,33.50
2018-11-21T07:32:53.861Z,30.90
2018-11-21T07:35:22.902Z,36.60
2018-11-21T07:37:51.066Z,35.43
2018-11-21T07:40:19.397Z,30.83
2018-11-21T07:43:13.039Z,48.90
2018-11-21T07:45:41.293Z,40.80
2018-11-21T07:48:09.538Z,38.20
2018-11-21T07:50:37.696Z,32.80
2018-11-21T07:53:05.881Z,35.00
2018-11-21T07:55:34.040Z,34.53
2018-11-21T07:58:04.813Z,33.13
2018-11-21T08:01:02.456Z,37.13
2018-11-21T08:03:32.895Z,33.10
2018-11-21T08:06:21.446Z,38.00
2018-11-21T08:09:14.884Z,35.20
2018-11-21T08:12:11.316Z,39.93
2018-11-21T08:14:57.288Z,40.20
2018-11-21T08:18:02.689Z,39.47
2018-11-21T08:20:48.500Z,32.30
2018-11-21T08:23:34.838Z,36.57
2018-11-21T08:26:14.707Z,37.33
2018-11-21T08:28:42.894Z,38.07
2018-11-21T08:31:11.066Z,36.40
2018-11-21T08:33:39.246Z,39.50
2018-11-21T08:36:07.412Z,46.70
2018-11-21T08:38:37.639Z,33.93
2018-11-21T08:41:05.813Z,42.40
2018-11-21T08:43:33.992Z,42.60
2018-11-21T08:46:02.167Z,35.83
2018-11-21T08:48:30.345Z,32.70
2018-11-21T08:50:58.507Z,37.87
2018-11-21T08:53:26.681Z,39.27
2018-11-21T08:55:54.841Z,41.63
2018-11-21T08:58:23.011Z,35.93
2018-11-21T09:00:51.220Z,37.83
2018-11-21T09:03:19.424Z,37.87
2018-11-21T09:05:47.593Z,37.70
2018-11-21T09:08:15.762Z,34.90
2018-11-21T09:10:43.913Z,33.20
2018-11-21T09:13:12.064Z,37.33
2018-11-21T09:15:40.251Z,39.23
2018-11-21T09:18:08.417Z,35.87
2018-11-21T09:20:36.604Z,36.40
2018-11-21T09:23:04.779Z,36.17
2018-11-21T09:25:32.959Z,36.60
2018-11-21T09:28:01.132Z,37.43
2018-11-21T09:30:29.377Z,35.70
2018-11-21T09:32:58.347Z,35.63
2018-11-21T09:35:26.535Z,37.70
2018-11-21T09:37:55.821Z,35.87
2018-11-21T09:40:46.360Z,34.10
2018-11-21T09:43:42.465Z,34.23
2018-11-21T09:46:19.034Z,35.53
2018-11-21T09:48:47.162Z,38.60
2018-11-21T09:51:15.353Z,33.57
2018-11-21T09:53:43.523Z,36.20
2018-11-21T09:56:11.710Z,36.33
2018-11-21T09:58:39.881Z,38.37
2018-11-21T10:01:44.708Z,30.20
2018-11-21T10:04:12.883Z,31.20
2018-11-21T10:08:42.739Z,34.03
2018-11-21T10:11:13.125Z,33.27
2018-11-21T10:13:42.612Z,33.37
2018-11-21T10:18:51.572Z,30.10
2018-11-21T10:21:25.675Z,34.73
2018-11-21T10:26:24.151Z,34.13
2018-11-21T10:31:23.034Z,34.43
2018-11-21T10:33:55.651Z,30.73
2018-11-21T10:36:25.217Z,30.70
2018-11-21T10:38:57.204Z,28.50
2018-11-21T10:44:02.310Z,29.10
2018-11-21T10:49:08.207Z,31.43
2018-11-21T10:51:36.575Z,33.17
2018-11-21T10:54:06.743Z,34.93
2018-11-21T10:59:09.284Z,31.83
2018-11-21T11:04:32.000Z,32.07
2018-11-21T11:07:33.735Z,34.87
2018-11-21T11:10:39.516Z,32.20
2018-11-21T11:13:26.863Z,34.47
2018-11-21T11:16:13.728Z,30.37
2018-11-21T11:19:14.095Z,31.67
2018-11-21T11:22:01.181Z,35.40
2018-11-21T11:24:49.389Z,36.30
2018-11-21T11:27:43.445Z,35.93
2018-11-21T11:30:34.180Z,34.30
2018-11-21T11:33:26.149Z,33.47
2018-11-21T11:36:14.172Z,31.30
2018-11-21T11:39:00.750Z,35.00
2018-11-21T11:41:51.601Z,33.87
2018-11-21T11:44:47.733Z,31.67
2018-11-21T11:47:30.227Z,36.27
2018-11-21T11:50:27.029Z,35.57
2018-11-21T11:53:24.476Z,34.53
2018-11-21T11:56:11.598Z,36.77
2018-11-21T11:59:11.953Z,33.90
2018-11-21T12:01:59.083Z,34.13
2018-11-21T12:04:45.776Z,32.63
2018-11-21T12:07:29.041Z,36.13
2018-11-21T12:10:17.252Z,44.50
2018-11-21T12:13:05.097Z,39.03
2018-11-21T12:15:52.800Z,35.10
2018-11-21T12:18:49.617Z,34.60
2018-11-21T12:21:56.040Z,34.60
2018-11-21T12:24:42.920Z,34.50
2018-11-21T12:27:25.463Z,37.33
2018-11-21T12:30:22.988Z,32.90
2018-11-21T12:33:02.991Z,36.10
2018-11-21T12:35:45.177Z,33.37
2018-11-21T12:38:24.119Z,32.50
2018-11-21T12:41:09.498Z,37.47
2018-11-21T12:43:57.218Z,35.50
2018-11-21T12:46:44.276Z,36.37
2018-11-21T12:49:24.280Z,37.93
2018-11-21T12:52:07.593Z,37.43
2018-11-21T12:54:47.961Z,37.43
2018-11-21T12:57:42.014Z,35.57
2018-11-21T13:00:42.358Z,33.40
2018-11-21T13:03:29.656Z,34.13
2018-11-21T13:06:12.315Z,36.37
2018-11-21T13:09:03.298Z,36.20
2018-11-21T13:11:48.800Z,32.40
2018-11-21T13:14:42.825Z,37.17
2018-11-21T13:17:36.689Z,33.23
2018-11-21T13:20:14.068Z,33.57
2018-11-21T13:23:03.693Z,35.13
2018-11-21T13:25:44.703Z,33.23
2018-11-21T13:28:31.533Z,33.37
2018-11-21T13:31:27.041Z,32.93
2018-11-21T13:34:14.293Z,40.30
2018-11-21T13:37:20.911Z,38.80
2018-11-21T13:40:09.896Z,39.70
2018-11-21T13:43:04.256Z,44.10
2018-11-21T13:46:04.644Z,49.57
2018-11-21T13:48:55.583Z,45.43
2018-11-21T13:51:35.351Z,39.57
2018-11-21T13:54:27.884Z,35.60
2018-11-21T13:56:57.308Z,36.67
2018-11-21T13:59:26.708Z,36.93
2018-11-21T14:01:56.144Z,42.90
2018-11-21T14:04:25.636Z,45.30
2018-11-21T14:06:55.144Z,37.40
2018-11-21T14:09:24.899Z,41.23
2018-11-21T14:11:54.420Z,41.80
2018-11-21T14:14:23.990Z,39.70
2018-11-21T14:16:53.452Z,45.47
2018-11-21T14:19:22.859Z,41.33
2018-11-21T14:21:55.853Z,52.13
2018-11-21T14:24:21.945Z,44.30
2018-11-21T14:26:51.404Z,48.37
2018-11-21T14:29:20.853Z,43.00
2018-11-21T14:31:50.388Z,39.70
2018-11-21T14:34:20.001Z,46.97
2018-11-21T14:36:49.600Z,48.97
2018-11-21T14:39:19.335Z,52.30
2018-11-21T14:41:49.292Z,46.13
2018-11-21T14:44:18.692Z,41.70
2018-11-21T14:46:50.185Z,45.80
2018-11-21T14:49:19.859Z,37.23
2018-11-21T14:51:49.316Z,38.80
2018-11-21T14:54:18.976Z,40.33
2018-11-21T14:56:48.554Z,38.97
2018-11-21T14:59:17.968Z,45.33
2018-11-21T15:01:47.571Z,40.47
2018-11-21T15:04:17.090Z,38.33
2018-11-21T15:06:46.610Z,36.63
2018-11-21T15:09:16.065Z,42.50
2018-11-21T15:11:45.635Z,41.73
2018-11-21T15:14:15.117Z,35.73
2018-11-21T15:16:44.606Z,38.80
2018-11-21T15:19:14.094Z,41.27
2018-11-21T15:21:43.686Z,44.40
2018-11-21T15:24:13.180Z,38.40
2018-11-21T15:26:42.579Z,46.87
2018-11-21T15:29:12.201Z,39.20
2018-11-21T15:31:41.703Z,45.00
2018-11-21T15:34:11.111Z,44.53
2018-11-21T15:36:40.519Z,43.17
2018-11-21T15:39:11.574Z,46.27
2018-11-21T15:41:41.478Z,41.93
2018-11-21T15:44:10.924Z,41.03
2018-11-21T15:46:45.718Z,41.40
2018-11-21T15:49:09.935Z,43.80
2018-11-21T15:51:40.206Z,39.87
2018-11-21T15:54:10.142Z,42.50
2018-11-21T15:56:39.580Z,45.17
2018-11-21T15:59:08.989Z,49.07
2018-11-21T16:01:38.410Z,41.90
2018-11-21T16:04:08.088Z,43.23
2018-11-21T16:06:37.483Z,46.00
2018-11-21T16:09:10.065Z,49.73
2018-11-21T16:11:39.463Z,47.97
2018-11-21T16:14:08.880Z,45.97
2018-11-21T16:16:38.463Z,48.83
2018-11-21T16:19:08.603Z,52.93
2018-11-21T16:21:38.177Z,42.97
2018-11-21T16:24:07.833Z,50.10
2018-11-21T16:26:37.352Z,57.60
2018-11-21T16:29:07.095Z,52.30
2018-11-21T16:31:36.632Z,48.50
2018-11-21T16:34:06.569Z,55.80
2018-11-21T16:36:36.064Z,48.13
2018-11-21T16:39:09.568Z,43.00
2018-11-21T16:41:39.171Z,44.63
2018-11-21T16:44:08.735Z,70.23
2018-11-21T16:46:38.366Z,53.37
2018-11-21T16:49:07.872Z,48.03
2018-11-21T16:51:37.288Z,50.97
2018-11-21T16:54:06.936Z,43.47
2018-11-21T16:56:36.344Z,52.43
2018-11-21T16:59:06.246Z,46.57
2018-11-21T17:01:35.740Z,44.37
2018-11-21T17:04:04.588Z,53.80
2018-11-21T17:09:07.709Z,53.53
2018-11-21T17:11:40.552Z,45.33
2018-11-21T18:16:25.149Z,52.13
2018-11-21T18:18:54.659Z,46.23
2018-11-21T18:21:24.153Z,56.97
2018-11-21T18:23:53.700Z,45.60
2018-11-21T18:51:05.699Z,49.37
2018-11-21T18:53:35.448Z,54.90
2018-11-21T18:56:15.740Z,50.73
2018-11-21T18:59:27.540Z,50.80
2018-11-21T19:01:57.053Z,56.83
2018-11-21T19:06:55.668Z,48.10
2018-11-21T19:11:54.393Z,48.63
2018-11-21T19:16:52.865Z,43.77
2018-11-21T19:19:22.407Z,53.63
2018-11-21T19:24:18.831Z,55.00
2018-11-21T19:26:48.276Z,51.87
2018-11-21T19:31:52.976Z,51.63
2018-11-21T19:34:22.568Z,57.20
2018-11-21T19:39:21.123Z,47.03
2018-11-21T19:44:20.471Z,42.03
2018-11-21T19:46:49.974Z,52.60
2018-11-21T19:49:19.487Z,58.90
2018-11-21T19:54:18.219Z,50.60
2018-11-21T19:56:47.766Z,55.03
2018-11-21T20:01:52.718Z,48.30
2018-11-21T20:04:22.316Z,58.30
2018-11-21T20:06:51.847Z,53.10
2018-11-21T20:11:56.950Z,53.10
2018-11-21T20:17:01.819Z,49.27
2018-11-21T20:22:06.761Z,51.70
2018-11-21T20:27:11.008Z,45.87
2018-11-21T20:32:15.945Z,55.00
2018-11-21T20:37:18.080Z,60.10
2018-11-21T20:42:22.780Z,54.73
2018-11-21T20:47:27.729Z,57.83
2018-11-21T20:52:32.079Z,53.50
2018-11-21T20:57:37.507Z,59.00
2018-11-21T21:00:05.204Z,55.33
2018-11-21T21:02:34.809Z,62.50
2018-11-21T21:05:04.524Z,56.67
2018-11-21T21:10:02.995Z,52.60
2018-11-21T21:15:01.423Z,55.93
2018-11-21T21:17:31.071Z,51.37
2018-11-21T21:22:29.512Z,54.60
2018-11-21T21:24:58.931Z,50.70
2018-11-21T21:30:04.474Z,47.20
2018-11-21T21:32:34.041Z,53.67
2018-11-21T21:37:32.553Z,60.73
2018-11-21T21:40:02.465Z,58.73
2018-11-21T21:42:31.983Z,58.60
2018-11-21T21:45:01.409Z,54.20
2018-11-21T21:47:30.971Z,53.20
2018-11-21T21:50:02.666Z,51.17
2018-11-21T21:52:32.788Z,56.97
2018-11-21T21:55:02.435Z,55.83
2018-11-21T21:57:31.863Z,59.40
2018-11-21T22:00:01.280Z,51.33
2018-11-21T22:02:30.784Z,53.93
2018-11-21T22:05:00.230Z,52.83
2018-11-21T22:07:29.653Z,49.47
2018-11-21T22:09:59.035Z,52.70
2018-11-21T22:12:28.554Z,54.83
2018-11-21T22:14:58.043Z,52.47
2018-11-21T22:17:27.509Z,51.23
2018-11-21T22:19:56.948Z,57.20
2018-11-21T22:22:26.407Z,57.87
2018-11-21T22:24:55.800Z,54.90
2018-11-21T22:27:25.195Z,56.20
2018-11-21T22:29:54.763Z,43.33
2018-11-21T22:32:24.282Z,47.27
2018-11-21T22:34:53.798Z,52.23
2018-11-21T22:37:23.230Z,50.53
2018-11-21T22:39:52.768Z,57.57
2018-11-21T22:42:22.296Z,53.37
2018-11-21T22:44:51.745Z,53.37
2018-11-21T22:47:21.349Z,49.10
2018-11-21T22:49:50.927Z,45.70
2018-11-21T22:52:20.474Z,49.97
2018-11-21T22:54:50.039Z,45.70
2018-11-21T22:57:19.695Z,38.73
2018-11-21T22:59:49.143Z,40.03
2018-11-21T23:02:18.691Z,38.33
2018-11-21T23:04:48.232Z,40.67
2018-11-21T23:07:17.656Z,41.20
2018-11-21T23:09:47.188Z,40.83
2018-11-21T23:12:16.700Z,36.83
2018-11-21T23:14:46.184Z,38.90
2018-11-21T23:17:15.696Z,41.03
2018-11-21T23:19:45.145Z,38.27
2018-11-21T23:22:14.883Z,40.37
2018-11-21T23:24:44.427Z,43.63
2018-11-21T23:27:13.911Z,40.27
2018-11-21T23:29:43.529Z,45.83
2018-11-21T23:32:13.009Z,42.67
2018-11-21T23:34:42.676Z,49.30
2018-11-21T23:37:12.298Z,39.07
2018-11-21T23:39:42.159Z,39.77
2018-11-21T23:42:11.691Z,37.83
2018-11-21T23:44:41.438Z,41.20
2018-11-21T23:47:11.121Z,35.43
2018-11-21T23:49:40.701Z,38.50
2018-11-21T23:52:10.200Z,40.03
2018-11-21T23:54:39.740Z,35.73
2018-11-21T23:57:16.138Z,38.53
2018-11-21T23:59:38.740Z,35.70
